Aviation Digital Data Service (ADDS)

Output produced by METARs form (2318 UTC 01 February 2023)
found at http://www.aviationweather.gov/metar/data/
 
KBHM 012253Z 35006KT 10SM OVC016 08/04 A3027 RMK AO2 SLP250 T00780044 $
KBHM 012204Z 0122/0218 34007KT P6SM OVC015 
     FM020200 VRB04KT P6SM OVC008 
     FM020400 VRB04KT P6SM OVC007 
     FM020600 VRB04KT 5SM -RA BR OVC006 
     FM021300 02005KT 3SM RA BR OVC004